Time;durP1;ratioP1;P1;durP2;ratioP2;P2;SDS_P1;SDS_P2;PMS_P1;PMS_P2;Temp;Humidity;BMP_temperature;BMP_pressure;BME280_temperature;BME280_humidity;BME280_pressure;Samples;Min_cycle;Max_cycle;Signal;HPM_P1;HPM_P2
2021/05/03 00:01:42;;;;;;;9.48;5.03;;;3.20;90.60;;;;;;4993819;28;20042;-63
2021/05/03 00:04:08;;;;;;;11.30;5.70;;;1.90;90.60;;;;;;4999890;28;20042;-63
2021/05/03 00:06:33;;;;;;;8.93;5.13;;;3.00;90.50;;;;;;5001549;28;20156;-64
2021/05/03 00:08:59;;;;;;;9.93;5.68;;;3.60;90.60;;;;;;5007214;28;20495;-64
2021/05/03 00:11:25;;;;;;;10.55;5.35;;;;;;;;;;5006599;28;20100;-63
2021/05/03 00:13:52;;;;;;;9.07;4.93;;;2.50;90.30;;;;;;5002119;28;20450;-63
2021/05/03 00:16:18;;;;;;;10.52;4.85;;;3.10;89.80;;;;;;5003952;28;20141;-64
2021/05/03 00:18:44;;;;;;;9.15;4.85;;;2.40;90.10;;;;;;4990980;28;20133;-64
2021/05/03 00:21:09;;;;;;;11.10;4.90;;;3.10;89.50;;;;;;4994099;28;20042;-63
2021/05/03 00:23:35;;;;;;;8.98;4.72;;;3.10;89.70;;;;;;5007355;28;20048;-64
2021/05/03 00:26:07;;;;;;;10.52;4.95;;;4.50;90.80;;;;;;4997307;28;20038;-63
2021/05/03 00:28:34;;;;;;;9.27;5.25;;;3.10;89.70;;;;;;4994887;28;20042;-63
2021/05/03 00:31:00;;;;;;;8.13;4.95;;;3.90;90.70;;;;;;4993177;28;20053;-64
2021/05/03 00:33:26;;;;;;;15.48;5.65;;;2.40;90.60;;;;;;4995627;28;20411;-64
2021/05/03 00:35:51;;;;;;;10.63;5.72;;;2.70;90.90;;;;;;4999666;28;20129;-64
2021/05/03 00:38:18;;;;;;;13.25;4.63;;;;;;;;;;5006797;28;20043;-64
2021/05/03 00:40:44;;;;;;;11.57;5.40;;;2.90;90.60;;;;;;4994625;28;20038;-64
2021/05/03 00:43:16;;;;;;;12.25;5.07;;;2.90;90.60;;;;;;5002976;28;20535;-64
2021/05/03 00:45:42;;;;;;;10.43;5.20;;;2.20;90.50;;;;;;5005765;28;20133;-64
2021/05/03 00:48:08;;;;;;;10.55;6.75;;;2.30;90.30;;;;;;5002033;28;20484;-64
2021/05/03 00:50:34;;;;;;;10.98;5.57;;;4.10;90.80;;;;;;5003032;28;20081;-64
2021/05/03 00:53:00;;;;;;;10.27;4.88;;;2.80;90.60;;;;;;4999634;28;20034;-64
2021/05/03 00:55:27;;;;;;;10.70;5.55;;;;;;;;;;4999310;28;20048;-65
2021/05/03 00:57:53;;;;;;;10.63;5.18;;;2.90;90.70;;;;;;4992362;28;20038;-63
2021/05/03 01:00:22;;;;;;;8.40;4.50;;;3.90;90.90;;;;;;4998189;28;20200;-64
2021/05/03 01:02:48;;;;;;;10.98;5.85;;;2.20;90.40;;;;;;4995886;28;20065;-63
2021/05/03 01:05:14;;;;;;;9.88;5.22;;;2.30;90.60;;;;;;4998925;28;20045;-64
2021/05/03 01:07:40;;;;;;;11.18;5.57;;;2.70;90.80;;;;;;5022759;28;20048;-64
2021/05/03 01:10:06;;;;;;;9.98;5.45;;;2.70;90.20;;;;;;5014161;28;20037;-64
2021/05/03 01:12:32;;;;;;;9.82;5.13;;;2.10;90.40;;;;;;5009940;28;20034;-63
2021/05/03 01:14:58;;;;;;;12.20;6.07;;;2.80;90.60;;;;;;5010506;28;20046;-64
2021/05/03 01:17:34;;;;;;;13.75;6.28;;;2.60;90.80;;;;;;5016127;28;20454;-64
2021/05/03 01:20:28;;;;;;;12.05;6.07;;;2.20;90.70;;;;;;5000187;28;20046;-65
2021/05/03 01:22:57;;;;;;;11.25;5.90;;;4.70;91.60;;;;;;4998870;28;20050;-64
2021/05/03 01:25:31;;;;;;;10.88;6.35;;;3.00;91.00;;;;;;4996375;28;20071;-64
2021/05/03 01:28:02;;;;;;;12.75;6.13;;;2.90;90.40;;;;;;5011776;28;20048;-63
2021/05/03 01:30:30;;;;;;;12.25;5.85;;;2.60;91.20;;;;;;4996513;28;20034;-65
2021/05/03 01:32:58;;;;;;;14.95;6.18;;;2.20;90.90;;;;;;5006710;28;20095;-64
2021/05/03 01:35:24;;;;;;;11.90;5.57;;;4.50;92.00;;;;;;5000760;28;20129;-64
2021/05/03 01:37:52;;;;;;;11.95;6.57;;;4.30;92.20;;;;;;4996786;28;20054;-64
2021/05/03 01:40:18;;;;;;;11.43;5.65;;;2.60;91.00;;;;;;5008239;28;20042;-64
2021/05/03 01:42:44;;;;;;;11.15;6.43;;;3.80;91.40;;;;;;5001428;28;20092;-63
2021/05/03 01:45:11;;;;;;;11.35;6.00;;;2.80;91.00;;;;;;4996979;28;20042;-64
2021/05/03 01:47:37;;;;;;;13.70;6.28;;;2.70;90.90;;;;;;4996357;28;20077;-64
2021/05/03 01:50:04;;;;;;;12.35;5.57;;;2.60;90.90;;;;;;4994209;28;20092;-64
2021/05/03 01:52:29;;;;;;;10.77;5.93;;;3.40;90.90;;;;;;5009065;28;20052;-64
2021/05/03 01:54:56;;;;;;;11.82;6.28;;;4.40;91.30;;;;;;4999953;28;20116;-64
2021/05/03 01:57:22;;;;;;;11.15;6.13;;;5.70;91.50;;;;;;5012078;28;20068;-63
2021/05/03 01:59:52;;;;;;;11.45;5.68;;;3.80;90.70;;;;;;4994981;28;20496;-66
2021/05/03 02:02:18;;;;;;;9.50;5.32;;;3.50;90.20;;;;;;5009878;28;20465;-65
2021/05/03 02:04:44;;;;;;;11.25;6.55;;;4.10;90.60;;;;;;5011528;28;20045;-64
2021/05/03 02:07:13;;;;;;;10.95;5.82;;;3.70;90.70;;;;;;5009599;28;20443;-63
2021/05/03 02:09:48;;;;;;;13.98;6.13;;;3.50;90.20;;;;;;5010570;28;20041;-63
2021/05/03 02:12:14;;;;;;;12.25;5.60;;;3.50;90.10;;;;;;5002325;28;20096;-64
2021/05/03 02:14:41;;;;;;;15.27;6.30;;;3.50;90.60;;;;;;5002031;28;20503;-64
2021/05/03 02:17:07;;;;;;;13.60;6.10;;;2.80;90.40;;;;;;5010415;28;20038;-64
2021/05/03 02:19:33;;;;;;;9.20;5.38;;;3.50;90.10;;;;;;5009435;28;20088;-64
2021/05/03 02:22:00;;;;;;;9.48;5.60;;;4.10;90.60;;;;;;5004101;28;20034;-64
2021/05/03 02:24:26;;;;;;;12.98;6.40;;;5.10;91.30;;;;;;4992465;28;20714;-64
2021/05/03 02:26:52;;;;;;;14.02;7.00;;;3.60;90.30;;;;;;4998950;28;20065;-65
2021/05/03 02:29:18;;;;;;;11.05;5.97;;;;;;;;;;4999945;28;20042;-64
2021/05/03 02:31:44;;;;;;;11.93;5.68;;;3.60;90.50;;;;;;5004207;28;20062;-65
2021/05/03 02:34:10;;;;;;;13.50;6.15;;;3.70;90.60;;;;;;4993694;28;20073;-65
2021/05/03 02:36:36;;;;;;;12.00;5.60;;;4.10;91.40;;;;;;5004696;28;20045;-64
2021/05/03 02:39:02;;;;;;;16.50;6.68;;;3.80;90.80;;;;;;5010754;28;20144;-65
2021/05/03 02:41:30;;;;;;;12.10;6.20;;;3.80;91.00;;;;;;5002766;28;20030;-65
2021/05/03 02:43:56;;;;;;;11.30;5.85;;;3.90;91.10;;;;;;4990444;28;20039;-65
2021/05/03 02:46:22;;;;;;;9.73;6.30;;;3.30;90.90;;;;;;4999937;28;20061;-65
2021/05/03 02:48:48;;;;;;;10.55;6.40;;;3.90;90.60;;;;;;5000860;28;20422;-65
2021/05/03 02:51:13;;;;;;;15.93;7.93;;;4.00;91.10;;;;;;4995056;28;20038;-64
2021/05/03 02:53:40;;;;;;;14.60;7.70;;;4.00;90.70;;;;;;4986227;28;20038;-65
2021/05/03 02:56:06;;;;;;;12.30;6.68;;;5.60;91.60;;;;;;4995480;28;20030;-64
2021/05/03 02:58:32;;;;;;;12.98;7.07;;;4.90;91.50;;;;;;4990656;28;20042;-65
2021/05/03 03:00:58;;;;;;;13.48;6.78;;;4.00;90.70;;;;;;4997474;28;20117;-65
2021/05/03 03:03:24;;;;;;;11.20;6.13;;;4.10;90.90;;;;;;5007067;28;20542;-64
2021/05/03 03:05:49;;;;;;;10.88;6.10;;;4.10;90.50;;;;;;5007893;28;20525;-65
2021/05/03 03:08:15;;;;;;;9.18;5.80;;;4.50;91.20;;;;;;4993673;28;20153;-65
2021/05/03 03:10:41;;;;;;;13.90;7.40;;;4.20;91.20;;;;;;5003923;28;20056;-64
2021/05/03 03:13:07;;;;;;;10.93;6.13;;;;;;;;;;4996565;28;20049;-65
2021/05/03 03:15:35;;;;;;;10.57;6.30;;;4.80;91.20;;;;;;4999525;28;20046;-64
2021/05/03 03:18:02;;;;;;;13.40;7.07;;;4.20;90.70;;;;;;4998308;28;20046;-65
2021/05/03 03:20:29;;;;;;;11.30;5.95;;;3.40;91.10;;;;;;5006433;28;20034;-65
2021/05/03 03:22:55;;;;;;;14.88;6.82;;;3.90;91.10;;;;;;4997390;28;20117;-65
2021/05/03 03:25:22;;;;;;;14.65;7.93;;;4.40;91.70;;;;;;5005936;28;21388;-65
2021/05/03 03:27:48;;;;;;;12.18;6.70;;;4.40;91.00;;;;;;5002469;28;20058;-65
2021/05/03 03:30:15;;;;;;;10.60;6.30;;;4.40;91.60;;;;;;5002463;28;20034;-65
2021/05/03 03:32:45;;;;;;;12.88;6.60;;;5.10;91.60;;;;;;5003688;28;20033;-65
2021/05/03 03:35:18;;;;;;;10.95;6.18;;;4.40;91.10;;;;;;5009310;28;20041;-64
2021/05/03 03:37:45;;;;;;;12.10;7.13;;;4.80;92.10;;;;;;5007294;28;20053;-64
2021/05/03 03:40:13;;;;;;;11.98;6.07;;;4.50;91.60;;;;;;5003395;28;20038;-64
2021/05/03 03:42:39;;;;;;;14.18;7.03;;;4.30;91.90;;;;;;5002333;28;20049;-64
2021/05/03 03:45:07;;;;;;;12.90;6.50;;;3.90;91.70;;;;;;4995963;28;20411;-64
2021/05/03 03:47:32;;;;;;;13.10;6.90;;;4.60;91.20;;;;;;5002911;28;20037;-64
2021/05/03 03:49:58;;;;;;;12.98;6.97;;;4.90;91.90;;;;;;4995429;28;20254;-63
2021/05/03 03:52:24;;;;;;;13.60;7.55;;;4.60;91.50;;;;;;5007332;28;20045;-64
2021/05/03 03:54:50;;;;;;;15.25;6.97;;;6.30;92.50;;;;;;5002415;28;20041;-63
2021/05/03 03:57:17;;;;;;;11.90;7.25;;;4.70;91.70;;;;;;5005403;28;20034;-63
2021/05/03 03:59:46;;;;;;;12.57;6.65;;;4.40;91.50;;;;;;5003268;28;20075;-64
2021/05/03 04:02:12;;;;;;;11.27;6.63;;;3.70;91.30;;;;;;5000262;28;20514;-64
2021/05/03 04:04:42;;;;;;;13.75;7.57;;;4.40;92.10;;;;;;4991753;28;20046;-64
2021/05/03 04:25:41;;;;;;;11.85;7.03;;;4.90;92.10;;;;;;4990569;28;20089;-64
2021/05/03 04:28:10;;;;;;;15.30;7.35;;;5.10;92.20;;;;;;5005117;28;20048;-64
2021/05/03 04:30:36;;;;;;;11.48;6.80;;;5.00;92.30;;;;;;5000217;28;20066;-64
2021/05/03 04:33:03;;;;;;;11.30;6.93;;;4.90;91.70;;;;;;5001042;28;20035;-64
2021/05/03 04:35:29;;;;;;;11.43;6.90;;;5.30;92.10;;;;;;5001473;28;20038;-64
2021/05/03 04:37:55;;;;;;;14.88;7.47;;;4.90;92.60;;;;;;5000524;28;20056;-64
2021/05/03 04:40:20;;;;;;;13.10;8.43;;;4.90;91.60;;;;;;4999311;28;20116;-64
2021/05/03 04:42:46;;;;;;;13.43;7.25;;;4.60;92.00;;;;;;5002390;28;20071;-64
2021/05/03 04:45:13;;;;;;;16.63;7.85;;;5.00;92.20;;;;;;4992720;28;20034;-64
2021/05/03 04:47:40;;;;;;;12.70;7.63;;;3.90;91.80;;;;;;4992566;28;20513;-64
2021/05/03 04:50:08;;;;;;;18.67;7.93;;;4.70;92.00;;;;;;5005620;28;20042;-64
2021/05/03 04:52:35;;;;;;;15.98;8.00;;;3.80;92.40;;;;;;5001713;28;20038;-64
2021/05/03 04:55:01;;;;;;;17.55;8.60;;;4.90;92.30;;;;;;4993547;28;20050;-64
2021/05/03 04:57:27;;;;;;;12.73;7.50;;;5.00;91.90;;;;;;4994719;28;20092;-64
2021/05/03 04:59:53;;;;;;;13.75;8.32;;;3.80;91.90;;;;;;4992842;28;20069;-64
2021/05/03 05:02:19;;;;;;;13.50;8.80;;;5.40;91.90;;;;;;4982768;28;20042;-65
2021/05/03 05:04:45;;;;;;;17.23;9.85;;;5.10;91.90;;;;;;4999185;28;20042;-64
2021/05/03 05:07:11;;;;;;;18.77;9.65;;;3.80;92.20;;;;;;4995547;28;20069;-64
2021/05/03 05:09:37;;;;;;;18.00;9.77;;;5.00;92.20;;;;;;4997318;28;20439;-64
2021/05/03 05:12:03;;;;;;;20.27;9.63;;;4.90;92.20;;;;;;5001427;28;20480;-64
2021/05/03 05:14:29;;;;;;;16.17;9.40;;;4.70;92.30;;;;;;4996917;28;20041;-64
2021/05/03 05:16:55;;;;;;;19.88;10.57;;;4.40;92.40;;;;;;5000269;28;20574;-63
2021/05/03 05:19:20;;;;;;;19.70;11.48;;;5.20;92.30;;;;;;5026412;28;20076;-64
2021/05/03 05:21:46;;;;;;;24.80;11.45;;;4.10;92.30;;;;;;5001313;28;20109;-64
2021/05/03 05:24:12;;;;;;;20.50;10.55;;;5.20;92.50;;;;;;5001960;28;20549;-64
2021/05/03 05:26:38;;;;;;;20.23;11.35;;;5.30;92.60;;;;;;5001514;28;20038;-64
2021/05/03 05:29:04;;;;;;;18.70;11.25;;;5.20;92.70;;;;;;4999201;28;20492;-64
2021/05/03 05:31:31;;;;;;;28.77;16.15;;;5.30;92.30;;;;;;5000368;28;20463;-64
2021/05/03 05:33:56;;;;;;;23.23;13.52;;;5.30;92.60;;;;;;4999500;28;20046;-62
2021/05/03 05:36:22;;;;;;;33.08;16.40;;;5.40;93.00;;;;;;4995576;28;20042;-63
2021/05/03 05:38:48;;;;;;;26.17;14.32;;;5.80;92.90;;;;;;5003911;28;20073;-64
2021/05/03 05:41:17;;;;;;;27.70;15.13;;;6.40;92.90;;;;;;5004771;28;20037;-64
2021/05/03 05:43:43;;;;;;;25.73;15.98;;;5.40;92.50;;;;;;5001989;28;20108;-62
2021/05/03 05:46:09;;;;;;;32.75;19.95;;;5.50;92.80;;;;;;5004205;28;20042;-63
2021/05/03 05:48:36;;;;;;;32.20;18.95;;;5.30;93.10;;;;;;5003971;28;20200;-63
2021/05/03 05:51:06;;;;;;;28.85;17.63;;;7.00;93.40;;;;;;4994532;28;20158;-63
2021/05/03 05:53:33;;;;;;;28.13;16.48;;;5.60;92.70;;;;;;5001320;28;20104;-64
2021/05/03 05:55:59;;;;;;;30.50;16.65;;;5.20;92.70;;;;;;5002797;28;20029;-64
2021/05/03 05:58:28;;;;;;;29.33;16.63;;;5.70;92.50;;;;;;4996638;28;20042;-64
2021/05/03 06:00:54;;;;;;;34.72;18.05;;;7.50;93.00;;;;;;4998527;28;20499;-64
2021/05/03 06:03:20;;;;;;;24.90;16.52;;;7.30;92.20;;;;;;5002342;28;20042;-64
2021/05/03 06:05:46;;;;;;;30.58;16.48;;;6.50;92.20;;;;;;4997689;28;20716;-64
2021/05/03 06:08:12;;;;;;;29.52;16.42;;;6.00;91.90;;;;;;4999220;28;20045;-64
2021/05/03 06:10:38;;;;;;;25.92;16.98;;;6.40;92.20;;;;;;5005145;28;20478;-63
2021/05/03 06:13:03;;;;;;;30.85;16.92;;;4.90;91.90;;;;;;4996115;28;20030;-64
2021/05/03 06:15:29;;;;;;;31.33;18.80;;;5.60;91.90;;;;;;5005147;28;20057;-64
2021/05/03 06:17:55;;;;;;;30.33;17.88;;;5.10;92.00;;;;;;4998356;28;20145;-64
2021/05/03 06:20:21;;;;;;;30.85;17.52;;;5.90;91.70;;;;;;5002220;28;20081;-64
2021/05/03 06:22:47;;;;;;;29.58;17.92;;;5.40;91.70;;;;;;5006401;28;20056;-64
2021/05/03 06:25:13;;;;;;;33.20;17.38;;;5.90;91.50;;;;;;5000083;28;20069;-62
2021/05/03 06:27:38;;;;;;;33.70;16.80;;;6.00;91.30;;;;;;5030798;28;20052;-64
2021/05/03 06:30:05;;;;;;;33.30;18.67;;;6.00;91.30;;;;;;4995297;28;20042;-64
2021/05/03 06:32:31;;;;;;;32.33;16.40;;;5.70;91.40;;;;;;4998850;28;20038;-62
2021/05/03 06:34:57;;;;;;;29.73;15.82;;;;;;;;;;5007844;28;20388;-63
2021/05/03 06:37:23;;;;;;;34.13;19.02;;;5.20;90.60;;;;;;5008154;28;20072;-63
2021/05/03 06:39:49;;;;;;;33.35;19.42;;;6.10;91.40;;;;;;5000392;28;20054;-62
2021/05/03 06:42:15;;;;;;;33.90;18.90;;;6.30;91.70;;;;;;4997521;28;20574;-62
2021/05/03 06:44:42;;;;;;;37.40;19.42;;;6.20;91.30;;;;;;5000030;28;20038;-62
2021/05/03 06:47:10;;;;;;;37.75;20.00;;;5.80;91.80;;;;;;5000275;28;20410;-63
2021/05/03 06:49:36;;;;;;;38.67;20.10;;;6.10;92.10;;;;;;4997067;28;20042;-63
2021/05/03 06:52:02;;;;;;;38.58;19.85;;;6.30;91.50;;;;;;5001476;28;20045;-63
2021/05/03 06:54:28;;;;;;;34.65;18.65;;;6.60;91.60;;;;;;4999972;28;20034;-64
2021/05/03 06:56:54;;;;;;;35.80;19.05;;;6.40;91.30;;;;;;4990544;28;20113;-63
2021/05/03 06:59:20;;;;;;;37.80;19.27;;;6.50;91.70;;;;;;5031684;28;20050;-63
2021/05/03 07:01:46;;;;;;;36.15;19.20;;;7.20;92.00;;;;;;5004166;28;20049;-63
2021/05/03 07:04:12;;;;;;;34.85;18.90;;;6.40;91.60;;;;;;4994562;28;20033;-63
2021/05/03 07:06:38;;;;;;;36.78;18.70;;;6.40;91.60;;;;;;4999733;28;20463;-63
2021/05/03 07:09:09;;;;;;;32.53;19.40;;;5.10;91.30;;;;;;5006572;28;20076;-63
2021/05/03 07:11:35;;;;;;;33.47;19.33;;;6.60;91.40;;;;;;5007953;28;20062;-63
2021/05/03 07:14:02;;;;;;;37.88;20.40;;;6.50;91.20;;;;;;4997736;28;20062;-63
2021/05/03 07:16:28;;;;;;;37.25;21.08;;;6.60;91.30;;;;;;5000900;28;20121;-63
2021/05/03 07:18:53;;;;;;;36.80;20.55;;;5.90;91.30;;;;;;4997200;28;20121;-63
2021/05/03 07:21:21;;;;;;;35.28;18.50;;;6.60;91.30;;;;;;4990735;28;20980;-63
2021/05/03 07:23:49;;;;;;;36.95;20.27;;;6.60;91.10;;;;;;5003250;28;20030;-63
2021/05/03 07:26:16;;;;;;;39.55;20.65;;;6.70;91.00;;;;;;4991040;28;20057;-63
2021/05/03 07:28:41;;;;;;;34.65;19.42;;;6.80;91.00;;;;;;4990880;28;20080;-63
2021/05/03 07:31:07;;;;;;;36.95;19.45;;;6.80;91.00;;;;;;5006050;28;20176;-63
2021/05/03 07:33:34;;;;;;;35.28;19.70;;;6.90;91.00;;;;;;4995724;28;20034;-63
2021/05/03 07:36:00;;;;;;;37.80;20.70;;;7.00;90.80;;;;;;4990995;28;20061;-63
2021/05/03 07:38:26;;;;;;;35.55;20.70;;;7.00;90.50;;;;;;4995286;28;20129;-63
2021/05/03 07:40:52;;;;;;;35.17;18.42;;;7.00;90.40;;;;;;4995491;28;20113;-64
2021/05/03 07:43:20;;;;;;;38.95;21.23;;;7.00;90.30;;;;;;5004365;28;20492;-63
2021/05/03 07:45:46;;;;;;;44.63;23.27;;;8.90;91.00;;;;;;4991407;28;20042;-63
2021/05/03 07:48:12;;;;;;;43.22;22.65;;;7.10;90.20;;;;;;5001333;28;20052;-63
2021/05/03 07:50:38;;;;;;;38.90;22.95;;;6.20;90.40;;;;;;5000036;28;20046;-63
2021/05/03 07:53:05;;;;;;;38.92;21.30;;;7.10;90.30;;;;;;5001173;28;20073;-64
2021/05/03 07:55:31;;;;;;;38.25;20.95;;;6.70;90.30;;;;;;4998229;28;20574;-64
2021/05/03 07:57:59;;;;;;;47.70;23.02;;;7.30;90.10;;;;;;4994601;28;20046;-63
2021/05/03 08:00:25;;;;;;;46.88;24.88;;;7.30;89.10;;;;;;4988778;28;20080;-64
2021/05/03 08:02:51;;;;;;;45.08;24.08;;;7.30;89.40;;;;;;4999064;28;20044;-63
2021/05/03 08:05:17;;;;;;;46.95;25.15;;;7.40;89.10;;;;;;5000436;28;20050;-63
2021/05/03 08:07:43;;;;;;;48.47;26.38;;;7.50;89.00;;;;;;5013212;28;20061;-63
2021/05/03 08:10:10;;;;;;;50.38;24.40;;;7.80;89.40;;;;;;5025777;28;20488;-64
2021/05/03 08:12:35;;;;;;;53.05;25.23;;;7.40;88.20;;;;;;5000891;28;20458;-63
2021/05/03 08:15:10;;;;;;;56.92;31.60;;;8.40;88.80;;;;;;5031707;28;20066;-64
2021/05/03 08:17:38;;;;;;;55.40;29.10;;;7.90;87.30;;;;;;4990712;28;20538;-65
2021/05/03 08:20:04;;;;;;;50.30;28.00;;;8.20;87.70;;;;;;4993892;28;20049;-62
2021/05/03 08:22:30;;;;;;;49.30;26.33;;;8.40;85.50;;;;;;5001826;28;20045;-63
2021/05/03 08:24:55;;;;;;;49.80;25.50;;;8.70;85.10;;;;;;5006751;28;20042;-63
2021/05/03 08:27:21;;;;;;;57.38;28.38;;;9.10;84.60;;;;;;4992252;28;20026;-64
2021/05/03 08:29:47;;;;;;;51.42;26.08;;;9.00;84.00;;;;;;5002808;28;20045;-63
2021/05/03 08:32:13;;;;;;;53.30;27.52;;;8.90;83.70;;;;;;5007524;28;20360;-64
2021/05/03 08:34:39;;;;;;;47.80;25.65;;;9.30;84.70;;;;;;4990203;28;20042;-63
2021/05/03 08:37:05;;;;;;;51.58;29.33;;;9.50;84.00;;;;;;4990239;28;20038;-63
2021/05/03 08:39:31;;;;;;;44.28;24.77;;;9.70;79.30;;;;;;4993206;28;20040;-62
2021/05/03 08:41:57;;;;;;;44.35;23.30;;;9.70;78.30;;;;;;5002945;28;20097;-62
2021/05/03 08:44:26;;;;;;;39.08;21.15;;;9.80;79.10;;;;;;4992692;28;20048;-62
2021/05/03 08:46:52;;;;;;;40.35;24.33;;;8.50;78.30;;;;;;4991909;28;20376;-63
2021/05/03 08:52:11;;;;;;;39.47;20.25;;;10.30;78.80;;;;;;4995471;28;20129;-63
2021/05/03 08:54:40;;;;;;;36.80;19.35;;;10.40;76.90;;;;;;5009397;28;20038;-63
2021/05/03 08:57:11;;;;;;;32.05;18.25;;;10.60;76.60;;;;;;5005458;28;20034;-63
2021/05/03 08:59:38;;;;;;;38.75;21.08;;;10.70;75.00;;;;;;5024915;28;20062;-63
2021/05/03 09:02:07;;;;;;;35.85;20.67;;;10.80;72.80;;;;;;5002238;28;20042;-63
2021/05/03 09:04:34;;;;;;;32.90;20.13;;;10.90;73.10;;;;;;4999771;28;20038;-63
2021/05/03 09:07:20;;;;;;;31.10;19.42;;;10.80;74.10;;;;;;5000822;28;20253;-64
2021/05/03 09:09:49;;;;;;;36.13;20.83;;;11.50;73.10;;;;;;4992503;28;20495;-61
2021/05/03 09:12:17;;;;;;;35.83;21.75;;;11.00;73.10;;;;;;5002495;28;20038;-63
2021/05/03 09:14:46;;;;;;;27.95;16.42;;;11.00;73.80;;;;;;4999842;28;20040;-62
2021/05/03 09:17:28;;;;;;;31.17;19.48;;;11.10;71.60;;;;;;5002371;28;20615;-63
2021/05/03 09:19:56;;;;;;;34.17;19.17;;;10.90;71.70;;;;;;5001613;28;20104;-63
2021/05/03 09:22:32;;;;;;;38.25;21.38;;;10.80;73.30;;;;;;5004334;28;20049;-63
2021/05/03 09:25:19;;;;;;;35.95;20.75;;;10.90;72.60;;;;;;5004814;28;20040;-64
2021/05/03 09:27:48;;;;;;;34.92;20.38;;;10.90;74.80;;;;;;5005777;28;20492;-62
2021/05/03 09:30:30;;;;;;;;;;;10.80;74.10;;;;;;4997220;28;20042;-63
2021/05/03 09:33:18;;;;;;;47.35;25.10;;;11.10;75.30;;;;;;5005129;28;19918;-63
2021/05/03 09:35:50;;;;;;;41.28;22.38;;;11.30;74.40;;;;;;5001480;28;20034;-63
2021/05/03 09:38:32;;;;;;;40.38;20.45;;;11.40;74.30;;;;;;5018622;28;20488;-64
2021/05/03 09:41:17;;;;;;;41.70;22.90;;;11.60;71.30;;;;;;4996974;28;20149;-63
2021/05/03 09:43:54;;;;;;;42.90;23.92;;;12.00;72.40;;;;;;5004353;28;20117;-63
2021/05/03 09:46:31;;;;;;;35.10;22.38;;;11.50;70.80;;;;;;5003958;28;20034;-63
2021/05/03 09:49:00;;;;;;;35.08;21.58;;;11.20;70.10;;;;;;5003768;28;20034;-64
2021/05/03 09:51:31;;;;;;;47.03;25.70;;;11.10;71.50;;;;;;5006910;28;20117;-63
2021/05/03 09:54:28;;;;;;;40.35;24.95;;;11.00;71.70;;;;;;4997054;28;20073;-64
2021/05/03 09:57:02;;;;;;;35.58;20.50;;;11.00;72.00;;;;;;4995112;28;20540;-64
2021/05/03 09:59:34;;;;;;;49.60;25.45;;;11.80;73.80;;;;;;5003315;28;20060;-63
2021/05/03 10:02:26;;;;;;;50.35;26.98;;;10.90;73.80;;;;;;3959796;28;10001082;-64
2021/05/03 10:05:00;;;;;;;54.20;29.83;;;10.60;75.00;;;;;;4992782;28;20053;-63
2021/05/03 10:07:28;;;;;;;56.53;28.88;;;10.60;74.40;;;;;;4988291;28;20042;-63
2021/05/03 10:10:01;;;;;;;53.42;28.02;;;11.10;74.60;;;;;;4989878;28;20057;-63
2021/05/03 10:12:28;;;;;;;46.40;27.27;;;10.60;76.00;;;;;;4994655;28;20034;-65
2021/05/03 10:14:56;;;;;;;66.65;35.00;;;10.60;75.30;;;;;;5022956;28;20044;-65
2021/05/03 10:17:23;;;;;;;57.83;29.15;;;10.20;75.60;;;;;;4989916;28;20152;-62
2021/05/03 10:19:50;;;;;;;60.85;32.88;;;11.30;75.60;;;;;;4993453;28;20042;-63
2021/05/03 10:22:21;;;;;;;60.30;33.33;;;10.50;75.70;;;;;;5001765;28;20145;-63
2021/05/03 10:24:51;;;;;;;48.25;26.48;;;10.80;75.80;;;;;;4998855;28;20042;-63
2021/05/03 10:27:21;;;;;;;56.25;29.25;;;11.50;74.40;;;;;;4999506;28;20041;-64
2021/05/03 10:29:49;;;;;;;51.35;28.70;;;11.20;74.40;;;;;;4997757;28;20184;-64
2021/05/03 10:32:23;;;;;;;52.30;29.42;;;11.70;74.10;;;;;;5003763;28;20038;-64
2021/05/03 10:34:53;;;;;;;64.57;33.30;;;11.00;74.10;;;;;;4994606;28;20042;-64
2021/05/03 10:37:32;;;;;;;65.75;31.48;;;11.00;74.60;;;;;;4998572;28;20042;-64
2021/05/03 10:40:00;;;;;;;52.57;29.27;;;11.00;74.00;;;;;;5007509;28;20108;-63
2021/05/03 10:42:26;;;;;;;67.97;36.40;;;10.90;75.60;;;;;;5010367;28;20064;-63
2021/05/03 10:45:08;;;;;;;62.10;33.50;;;10.90;76.20;;;;;;5005201;28;20029;-64
2021/05/03 10:47:46;;;;;;;58.78;30.55;;;11.40;77.40;;;;;;4999666;28;20034;-63
2021/05/03 10:50:33;;;;;;;62.47;34.55;;;10.70;78.80;;;;;;5003266;28;20049;-63
2021/05/03 10:53:27;;;;;;;60.70;32.95;;;10.60;78.90;;;;;;5002806;28;20454;-65
2021/05/03 10:56:01;;;;;;;67.70;34.42;;;10.40;78.60;;;;;;4996539;28;20064;-64
2021/05/03 10:58:27;;;;;;;62.03;35.83;;;10.20;82.20;;;;;;4996359;28;20042;-63
2021/05/03 11:01:04;;;;;;;62.63;33.20;;;10.40;80.90;;;;;;4999747;28;20054;-63
2021/05/03 11:03:56;;;;;;;64.10;36.33;;;10.80;80.30;;;;;;4991996;28;20042;-63
2021/05/03 11:06:43;;;;;;;73.18;37.90;;;10.80;80.80;;;;;;4991764;28;20049;-63
2021/05/03 11:12:04;;;;;;;38.88;21.83;;;11.30;79.20;;;;;;4990938;28;20124;-63
2021/05/03 11:14:32;;;;;;;48.90;26.88;;;11.50;73.40;;;;;;4996746;28;20034;-63
2021/05/03 11:17:18;;;;;;;44.25;25.75;;;13.70;75.90;;;;;;5001811;28;20038;-63
2021/05/03 11:22:25;;;;;;;40.65;23.98;;;12.30;71.60;;;;;;4995900;28;20046;-64
2021/05/03 11:24:55;;;;;;;46.55;28.77;;;11.80;68.50;;;;;;4993439;28;20100;-63
2021/05/03 11:27:47;;;;;;;41.33;28.30;;;12.50;68.30;;;;;;4998865;28;20183;-64
2021/05/03 11:30:25;;;;;;;38.22;23.50;;;12.20;68.20;;;;;;4999115;28;20050;-63
2021/05/03 11:32:54;;;;;;;42.03;24.60;;;11.90;69.60;;;;;;5000785;28;20034;-64
2021/05/03 11:36:00;;;;;;;34.72;20.08;;;11.90;64.50;;;;;;4999018;28;20069;-63
2021/05/03 11:41:11;;;;;;;24.63;16.75;;;11.80;66.50;;;;;;5003429;28;20065;-64
2021/05/03 11:46:24;;;;;;;21.35;13.75;;;12.30;62.20;;;;;;4993089;28;20038;-64
2021/05/03 11:48:55;;;;;;;22.02;12.95;;;11.40;65.70;;;;;;5005175;28;20045;-64
2021/05/03 11:51:21;;;;;;;19.00;12.85;;;11.50;67.30;;;;;;4992362;28;20048;-63
2021/05/03 11:53:47;;;;;;;21.00;13.98;;;11.60;66.70;;;;;;4999004;28;20569;-63
2021/05/03 11:56:26;;;;;;;21.55;15.13;;;11.50;65.70;;;;;;4996965;28;20074;-63
2021/05/03 11:58:57;;;;;;;30.27;19.88;;;11.80;68.10;;;;;;5004709;28;20037;-63
2021/05/03 12:01:26;;;;;;;34.13;20.17;;;12.10;68.10;;;;;;4999122;28;20049;-63
2021/05/03 12:04:00;;;;;;;35.67;19.67;;;12.30;67.60;;;;;;4997792;28;20064;-63
2021/05/03 12:06:42;;;;;;;40.08;24.52;;;12.30;65.90;;;;;;5011028;28;20042;-65
2021/05/03 12:09:13;;;;;;;44.72;28.17;;;12.70;67.30;;;;;;5006981;28;20459;-63
2021/05/03 12:11:56;;;;;;;45.20;24.20;;;12.20;66.40;;;;;;5000618;28;20407;-62
2021/05/03 12:14:42;;;;;;;43.67;26.27;;;12.20;68.10;;;;;;4992227;28;20034;-63
2021/05/03 12:17:32;;;;;;;39.70;23.65;;;12.40;68.10;;;;;;5004040;28;20034;-62
2021/05/03 12:20:08;;;;;;;34.65;22.80;;;12.40;67.40;;;;;;4996356;28;20042;-64
2021/05/03 12:22:34;;;;;;;31.27;20.02;;;12.40;63.70;;;;;;4990431;28;20038;-62
2021/05/03 12:28:42;;;;;;;18.10;12.50;;;12.00;59.10;;;;;;5008847;28;20034;-64
2021/05/03 12:31:08;;;;;;;18.80;12.77;;;13.30;67.70;;;;;;5001815;28;20034;-64
2021/05/03 12:33:38;;;;;;;17.75;9.82;;;11.00;66.50;;;;;;4992497;28;20403;-64
2021/05/03 12:36:10;;;;;;;15.00;8.55;;;11.00;68.80;;;;;;5002783;28;20060;-65
2021/05/03 12:38:35;;;;;;;9.65;6.00;;;11.00;69.10;;;;;;5006680;28;20046;-65
2021/05/03 12:41:05;;;;;;;10.00;6.72;;;11.00;66.40;;;;;;5004153;28;20099;-64
2021/05/03 12:43:38;;;;;;;9.52;6.47;;;11.00;67.50;;;;;;5000814;28;20122;-63
2021/05/03 12:46:26;;;;;;;10.75;6.38;;;11.10;69.20;;;;;;5011765;28;20087;-63
2021/05/03 12:49:19;;;;;;;10.95;7.65;;;11.40;67.80;;;;;;5002959;28;20053;-63
2021/05/03 12:52:05;;;;;;;10.90;7.47;;;11.80;66.50;;;;;;4994484;28;20081;-63
2021/05/03 12:54:44;;;;;;;11.85;8.10;;;12.00;64.80;;;;;;4995289;28;20050;-63
2021/05/03 12:59:57;;;;;;;9.85;6.60;;;12.30;64.00;;;;;;5002504;28;20089;-64
2021/05/03 13:02:30;;;;;;;10.95;8.43;;;12.40;58.70;;;;;;4998938;28;20565;-63
2021/05/03 13:25:29;;;;;;;9.52;7.00;;;12.40;60.00;;;;;;5010702;28;20045;-65
2021/05/03 13:28:06;;;;;;;10.18;7.05;;;12.00;58.80;;;;;;5008619;28;20120;-65
2021/05/03 13:30:37;;;;;;;8.68;6.43;;;12.00;58.70;;;;;;5016543;28;20490;-64
2021/05/03 13:33:04;;;;;;;7.03;5.78;;;12.10;58.90;;;;;;4994068;28;20484;-64
2021/05/03 13:35:32;;;;;;;8.13;6.13;;;12.20;59.60;;;;;;5024094;28;20511;-64
2021/05/03 13:37:58;;;;;;;8.88;6.82;;;12.10;57.10;;;;;;5005620;28;20095;-63
2021/05/03 13:40:23;;;;;;;12.25;8.43;;;12.20;57.20;;;;;;4999958;28;20042;-63
2021/05/03 13:42:54;;;;;;;11.50;8.20;;;12.10;57.00;;;;;;4993590;28;20307;-64
2021/05/03 13:45:22;;;;;;;9.75;6.38;;;12.10;57.30;;;;;;5004174;28;20046;-63
2021/05/03 13:47:49;;;;;;;11.90;9.35;;;12.10;58.90;;;;;;4993783;28;20042;-63
2021/05/03 13:50:16;;;;;;;11.02;8.15;;;12.00;59.20;;;;;;4998158;28;20033;-63